ZSNB

Ningbo Lishe International

Airport
ICAO code
ZSNB
Summary
ICAO Region
APAC
ICAO Territory
Location

Ningbo, Yangtze River,

Coordinates
29° 49' 36" N , 121° 27' 43" E
Metar
Observation
ZSNB 312000Z 00000MPS CAVOK 04/02 Q1016 NOSIG
Station
NINGBO/LISHE
Date/Time
2023-01-31 20:00:00
Wind direction
Lowest cloud amount
clouds and visibility OK
Temperature
4°C
Dew point
2°C
Humidity
86%
QNH
1016 hPa
Weather condition
n/a

Ningbo Lishe International Airport (IATA: NGB) is the principal airport serving Ningbo, a major city in the Yangtze River Delta region.

Airport map

Aerial View

SKYbrary Partners:

Safety knowledge contributed by: